Wetterdaten: August 2011
Datum Temp Feuchte Luftdruck Regen Wind Richtung Sonnenschein UV Solar Windben
01.08.2011 15,7 C 83 % 1016,9 hPa 0,0 l/m 0,3 km/h N-NO 3,92 h 2,5 UV-I 255 W/m 2,4 km/h
02.08.2011 19,9 C 73 % 1016,9 hPa 0,0 l/m 3,4 km/h SO 10,00 h 3,5 UV-I 405 W/m 8,4 km/h
03.08.2011 20,1 C 80 % 1013,6 hPa 0,0 l/m 3,3 km/h S-SO 4,42 h 2,4 UV-I 267 W/m 8,0 km/h
04.08.2011 19,6 C 78 % 1012,6 hPa 0,2 l/m 1,2 km/h W-NW 9,25 h 3,3 UV-I 411 W/m 8,1 km/h
05.08.2011 19,9 C 82 % 1011,5 hPa 2,6 l/m 2,4 km/h S-SW 7,00 h 3,3 UV-I 361 W/m 8,1 km/h
06.08.2011 18,8 C 88 % 1003,4 hPa 4,4 l/m 5,6 km/h S-SO 2,92 h 2,7 UV-I 229 W/m 12,5 km/h
07.08.2011 15,5 C 77 % 1005,2 hPa 1,4 l/m 3,6 km/h S-SW 3,67 h 2,9 UV-I 296 W/m 12,0 km/h
08.08.2011 12,7 C 87 % 1005,5 hPa 8,4 l/m 6,8 km/h S-SW 2,25 h 1,9 UV-I 197 W/m 19,3 km/h
09.08.2011 13,2 C 82 % 1015,7 hPa 4,4 l/m 8,8 km/h NW 3,58 h 2,3 UV-I 255 W/m 27,0 km/h
10.08.2011 14,7 C 72 % 1020,1 hPa 0,0 l/m 8,9 km/h S-SW 3,08 h 2,8 UV-I 257 W/m 28,2 km/h
11.08.2011 18,9 C 62 % 1010,5 hPa 0,0 l/m 5,3 km/h S-SW 4,67 h 2,5 UV-I 273 W/m 14,1 km/h
12.08.2011 15,9 C 95 % 1008,9 hPa 9,6 l/m 2,5 km/h S-SW 0,92 h 1,7 UV-I 130 W/m 8,1 km/h
13.08.2011 16,6 C 92 % 1008,9 hPa 0,2 l/m 0,2 km/h S-SW 1,50 h 2,0 UV-I 188 W/m 2,8 km/h
14.08.2011 16,4 C 95 % 1006,5 hPa 13,2 l/m 2,2 km/h S-SO 0,00 h 1,4 UV-I 82 W/m 8,1 km/h
15.08.2011 14,7 C 87 % 1015,3 hPa 1,0 l/m 0,5 km/h W-NW 4,08 h 2,4 UV-I 272 W/m 2,8 km/h
16.08.2011 13,5 C 89 % 1018,1 hPa 0,2 l/m 0,0 km/h S-SO 0,67 h 1,8 UV-I 149 W/m 0,4 km/h
17.08.2011 17,6 C 83 % 1016,0 hPa 0,0 l/m 1,2 km/h NW 8,17 h 3,1 UV-I 364 W/m 3,6 km/h
18.08.2011 21,1 C 75 % 1012,0 hPa 9,8 l/m 2,4 km/h SO 8,83 h 3,2 UV-I 387 W/m 9,7 km/h
19.08.2011 14,6 C 89 % 1016,3 hPa 8,0 l/m 3,2 km/h NW 1,83 h 1,6 UV-I 145 W/m 12,9 km/h
20.08.2011 15,4 C 82 % 1020,4 hPa 0,0 l/m 0,7 km/h S 11,92 h 3,5 UV-I 428 W/m 4,0 km/h
21.08.2011 19,9 C 86 % 1015,3 hPa 0,6 l/m 3,3 km/h S 5,67 h 2,6 UV-I 272 W/m 10,0 km/h
22.08.2011 17,8 C 89 % 1018,0 hPa 0,0 l/m 0,6 km/h W 1,92 h 2,0 UV-I 193 W/m 3,2 km/h
23.08.2011 21,6 C 87 % 1013,0 hPa 21,2 l/m 4,8 km/h O-SO 9,83 h 3,0 UV-I 357 W/m 13,3 km/h
24.08.2011 19,5 C 89 % 1014,0 hPa 11,0 l/m 0,9 km/h S 5,58 h 2,8 UV-I 295 W/m 2,8 km/h
25.08.2011 19,0 C 87 % 1013,1 hPa 0,2 l/m 3,7 km/h SO 7,67 h 3,1 UV-I 334 W/m 13,7 km/h
26.08.2011 21,0 C 86 % 1005,7 hPa 9,4 l/m 8,4 km/h S-SO 8,83 h 3,4 UV-I 381 W/m 19,7 km/h
27.08.2011 13,3 C 89 % 1011,8 hPa 6,2 l/m 3,1 km/h S 1,83 h 1,8 UV-I 183 W/m 8,8 km/h
28.08.2011 13,6 C 78 % 1015,9 hPa 0,0 l/m 5,9 km/h S-SW 1,58 h 2,3 UV-I 239 W/m 9,7 km/h
29.08.2011 11,5 C 84 % 1014,1 hPa 3,6 l/m 5,7 km/h S-SW 1,42 h 1,5 UV-I 124 W/m 20,1 km/h
30.08.2011 11,5 C 86 % 1015,1 hPa 0,2 l/m 0,6 km/h W 1,67 h 1,9 UV-I 202 W/m 4,4 km/h
31.08.2011 11,4 C 87 % 1014,5 hPa 0,2 l/m 0,5 km/h NW 6,25 h 2,6 UV-I 309 W/m 2,8 km/h
Min-Datum 31.08.11 11.08.11 07.08.11 22 Tage 01.08.11 - - - - 01.08.11
Min-Zeit 05:50 17:25 00:35 - 00:00 - - - - 00:00
Minimum 6,0 C 47 % 999,2 hPa - 0,0 km/h - - - - 0,0 km/h
Max-Datum 26.08.11 25.08.11 10.08.11 23.08.11 03.08.11 - 20.08.11 03.08.11 07.08.11 26.08.11
Max-Zeit 16:00 08:10 09:00 04:45 12:25 - 19:25 13:20 14:55 18:10
Maximum 30,2 C 99 % 1024,0 hPa 21,2 l/m 28,5 km/h
S-SO
- 11,83 h 7,7 UV-I 1136 W/m 54,7 km/h
SO
Durchschnitt 16,6 C 84 % 1013,1 hPa #116,0 l/m 3,2 km/h S-SW #144:55 h 2,5 UV-I 266 W/m 10,0 km/h

Durchschnitt Minimum Temp.12,4 C
Durchschnitt Maximum Temp.21,8 C